Terminal Aerodrome Forecast
Issued by NWS

Home | Current Version | Previous Version | Text Only | Print | Product List | Glossary On
Versions: 1 2 3 4 5 6 7 8 9 10 11 12
000
FTUS46 KMFR 221700
TAFRBG
TAF
KRBG 221740Z 2218/2318 VRB03KT P6SM OVC016
     FM222100 32007KT P6SM SCT020 BKN150
     FM230300 VRB03KT P6SM SCT080 OVC120
     FM231200 00000KT P6SM VCSH BKN060 OVC080=

USA.gov is the U.S. government's official web portal to all federal, state and local government web resources and services.